Time;durP1;ratioP1;P1;durP2;ratioP2;P2;SDS_P1;SDS_P2;PMS_P1;PMS_P2;Temp;Humidity;BMP_temperature;BMP_pressure;BME280_temperature;BME280_humidity;BME280_pressure;Samples;Min_cycle;Max_cycle;Signal;HPM_P1;HPM_P2
2022/06/16 00:02:18;;;;;;;0.47;0.40;;;24.60;48.10;;;;;;6278318;28;20044;-48
2022/06/16 00:05:23;;;;;;;0.88;0.57;;;24.50;48.00;;;;;;6280270;28;21490;-45
2022/06/16 00:08:25;;;;;;;0.60;0.50;;;24.60;48.10;;;;;;6278762;28;20071;-48
2022/06/16 00:11:26;;;;;;;0.60;0.50;;;24.60;48.10;;;;;;6281777;28;21031;-49
2022/06/16 00:14:29;;;;;;;0.60;0.57;;;24.60;48.10;;;;;;6283093;28;20047;-50
2022/06/16 00:17:31;;;;;;;0.77;0.50;;;24.60;48.10;;;;;;6278840;28;20944;-51
2022/06/16 00:20:32;;;;;;;0.70;0.60;;;24.50;48.00;;;;;;6282425;28;20051;-47
2022/06/16 00:23:35;;;;;;;0.70;0.60;;;24.60;48.10;;;;;;6280450;28;20129;-49
2022/06/16 00:26:40;;;;;;;0.70;0.50;;;24.50;48.00;;;;;;6275342;28;20073;-48
2022/06/16 00:29:42;;;;;;;0.77;0.50;;;24.60;48.10;;;;;;6281552;28;20048;-47
2022/06/16 00:32:44;;;;;;;0.80;0.68;;;24.40;48.00;;;;;;6286003;28;20113;-46
2022/06/16 00:35:45;;;;;;;0.80;0.50;;;24.50;48.10;;;;;;6282515;28;20084;-45
2022/06/16 00:38:47;;;;;;;0.82;0.60;;;24.50;48.10;;;;;;6282507;28;20964;-48
2022/06/16 00:41:49;;;;;;;0.52;0.50;;;24.40;48.10;;;;;;6285447;28;21011;-52
2022/06/16 00:44:53;;;;;;;0.75;0.50;;;24.50;48.10;;;;;;6283649;28;20168;-47
2022/06/16 00:47:55;;;;;;;0.70;0.50;;;24.50;48.20;;;;;;6283525;28;20043;-49
2022/06/16 00:51:04;;;;;;;1.00;0.40;;;24.50;48.10;;;;;;6278908;28;20423;-47
2022/06/16 00:54:09;;;;;;;0.98;0.45;;;24.50;48.20;;;;;;6269732;28;20071;-48
2022/06/16 00:57:15;;;;;;;0.70;0.50;;;24.40;48.10;;;;;;6270862;28;20232;-49
2022/06/16 01:00:21;;;;;;;0.60;0.40;;;24.40;48.20;;;;;;6267586;28;20405;-47
2022/06/16 01:06:39;;;;;;;0.82;0.60;;;24.30;48.10;;;;;;6267429;28;20315;-44
2022/06/16 01:09:43;;;;;;;1.13;0.60;;;24.40;48.30;;;;;;6269052;28;20075;-45
2022/06/16 01:16:26;;;;;;;0.60;0.50;;;24.50;48.40;;;;;;6265977;28;20044;-47
2022/06/16 01:19:45;;;;;;;0.95;0.60;;;24.50;48.40;;;;;;6267312;28;20060;-47
2022/06/16 01:23:17;;;;;;;0.82;0.55;;;24.50;48.40;;;;;;6272230;28;20047;-44
2022/06/16 01:26:43;;;;;;;0.50;0.40;;;24.30;48.30;;;;;;6272494;28;20612;-47
2022/06/16 01:29:52;;;;;;;0.43;0.43;;;24.30;48.40;;;;;;6265436;28;20181;-49
2022/06/16 01:33:02;;;;;;;0.93;0.40;;;24.40;48.50;;;;;;6271962;28;20167;-45
2022/06/16 01:36:12;;;;;;;0.60;0.52;;;24.40;48.60;;;;;;6278113;28;20261;-46
2022/06/16 01:39:18;;;;;;;1.05;0.70;;;24.30;48.50;;;;;;6270880;28;20060;-47
2022/06/16 01:42:31;;;;;;;0.90;0.70;;;24.20;48.60;;;;;;6272872;28;20449;-46
2022/06/16 01:45:44;;;;;;;0.60;0.57;;;24.40;48.80;;;;;;6269018;28;20450;-49
2022/06/16 01:48:58;;;;;;;0.60;0.60;;;24.30;48.80;;;;;;6272960;28;20203;-48
2022/06/16 01:52:04;;;;;;;0.70;0.55;;;24.20;48.70;;;;;;6269553;28;20046;-47
2022/06/16 01:55:10;;;;;;;0.60;0.50;;;24.30;49.10;;;;;;6271981;28;20146;-47
2022/06/16 01:58:17;;;;;;;0.73;0.60;;;24.30;49.00;;;;;;6273984;28;20419;-48
2022/06/16 02:01:25;;;;;;;0.68;0.50;;;24.20;49.00;;;;;;6274145;28;20040;-48
2022/06/16 02:04:32;;;;;;;0.85;0.60;;;24.20;49.10;;;;;;6273569;28;20040;-46
2022/06/16 02:07:38;;;;;;;0.93;0.60;;;24.20;49.20;;;;;;6268312;28;20040;-46
2022/06/16 02:10:49;;;;;;;0.53;0.50;;;24.20;49.20;;;;;;6270375;28;20032;-45
2022/06/16 02:13:57;;;;;;;1.33;0.60;;;24.10;49.20;;;;;;6270749;28;20040;-45
2022/06/16 02:17:03;;;;;;;0.40;0.40;;;24.20;49.40;;;;;;6270020;28;20061;-45
2022/06/16 02:20:06;;;;;;;1.20;0.60;;;24.20;49.50;;;;;;6275585;28;20308;-47
2022/06/16 02:23:08;;;;;;;0.65;0.50;;;24.20;49.60;;;;;;6273159;28;20155;-49
2022/06/16 02:26:10;;;;;;;1.05;0.70;;;24.00;49.60;;;;;;6272015;28;20378;-45
2022/06/16 02:29:26;;;;;;;0.90;0.60;;;24.10;49.70;;;;;;6267003;28;20321;-45
2022/06/16 02:32:39;;;;;;;0.40;0.40;;;24.10;49.80;;;;;;6272252;28;20412;-50
2022/06/16 02:35:50;;;;;;;0.90;0.50;;;24.10;49.90;;;;;;6284159;28;20079;-46
2022/06/16 02:39:04;;;;;;;0.80;0.65;;;24.10;50.00;;;;;;6279423;28;20804;-46
2022/06/16 02:42:18;;;;;;;0.65;0.65;;;24.10;50.00;;;;;;6274311;28;20078;-48
2022/06/16 02:45:29;;;;;;;0.50;0.40;;;24.20;50.10;;;;;;6270465;28;20055;-47
2022/06/16 02:48:35;;;;;;;;;;;24.20;50.20;;;;;;6272593;28;20337;-46
2022/06/16 02:51:42;;;;;;;1.17;0.50;;;24.00;50.10;;;;;;6269638;28;19927;-49
2022/06/16 02:54:55;;;;;;;0.80;0.50;;;24.10;50.10;;;;;;6267741;28;20531;-47
2022/06/16 02:58:00;;;;;;;0.60;0.50;;;24.10;50.20;;;;;;6266222;28;20043;-46
2022/06/16 03:01:13;;;;;;;0.40;0.40;;;24.20;51.00;;;;;;6269302;28;20455;-45
2022/06/16 03:04:18;;;;;;;0.65;0.55;;;24.00;50.30;;;;;;6276351;28;20082;-46
2022/06/16 03:07:21;;;;;;;1.00;0.55;;;24.00;50.40;;;;;;6270057;28;20601;-45
2022/06/16 03:13:50;;;;;;;0.98;0.70;;;24.00;50.60;;;;;;6263417;28;21007;-47
2022/06/16 03:17:02;;;;;;;0.70;0.60;;;24.00;50.60;;;;;;6272457;28;20043;-51
2022/06/16 03:20:11;;;;;;;0.82;0.70;;;23.80;50.60;;;;;;6265517;28;20106;-47
2022/06/16 03:23:13;;;;;;;1.33;0.50;;;24.00;50.90;;;;;;6270361;28;20151;-49
2022/06/16 03:26:16;;;;;;;0.80;0.68;;;23.90;51.00;;;;;;6271277;28;20609;-47
2022/06/16 03:29:18;;;;;;;1.88;0.68;;;23.80;51.00;;;;;;6268378;28;20406;-50
2022/06/16 03:32:22;;;;;;;1.25;0.70;;;23.90;51.20;;;;;;6270363;28;20453;-47
2022/06/16 03:35:24;;;;;;;0.75;0.60;;;23.90;51.20;;;;;;6272016;28;20618;-49
2022/06/16 03:38:34;;;;;;;0.65;0.55;;;23.90;51.20;;;;;;6262543;28;20579;-47
2022/06/16 03:41:38;;;;;;;0.50;0.47;;;23.90;51.20;;;;;;6267036;28;20151;-51
2022/06/16 03:44:41;;;;;;;0.70;0.60;;;24.00;51.30;;;;;;6270861;28;20230;-48
2022/06/16 03:47:45;;;;;;;1.20;0.73;;;23.80;51.20;;;;;;6274347;28;20078;-46
2022/06/16 03:50:49;;;;;;;0.80;0.60;;;23.80;51.80;;;;;;6271538;28;20623;-49
2022/06/16 03:53:52;;;;;;;0.50;0.47;;;23.90;51.30;;;;;;6275527;28;20362;-49
2022/06/16 03:56:54;;;;;;;0.88;0.60;;;23.90;51.90;;;;;;6272123;28;20040;-46
2022/06/16 03:59:55;;;;;;;0.90;0.73;;;23.90;51.30;;;;;;6272802;28;20047;-48
2022/06/16 04:06:24;;;;;;;0.77;0.60;;;23.90;51.40;;;;;;6270110;28;20043;-50
2022/06/16 04:09:26;;;;;;;0.77;0.50;;;24.50;51.70;;;;;;6271660;28;20273;-47
2022/06/16 04:12:33;;;;;;;0.50;0.50;;;23.80;51.40;;;;;;6270398;28;20214;-49
2022/06/16 04:15:36;;;;;;;0.88;0.60;;;23.90;51.50;;;;;;6266505;28;20051;-47
2022/06/16 04:18:40;;;;;;;0.70;0.57;;;23.90;51.60;;;;;;6265965;28;20391;-47
2022/06/16 04:21:45;;;;;;;1.55;0.73;;;23.90;51.60;;;;;;6264406;28;20051;-48
2022/06/16 04:24:53;;;;;;;0.57;0.40;;;24.00;51.70;;;;;;6263127;28;20455;-46
2022/06/16 04:27:55;;;;;;;0.75;0.50;;;23.80;51.60;;;;;;6264076;28;20052;-50
2022/06/16 04:30:58;;;;;;;0.60;0.60;;;23.90;51.70;;;;;;6265724;28;20287;-49
2022/06/16 04:34:04;;;;;;;0.60;0.50;;;23.80;51.70;;;;;;6263559;28;20044;-49
2022/06/16 04:37:15;;;;;;;0.50;0.40;;;23.80;51.70;;;;;;6264263;28;20078;-48
2022/06/16 04:40:20;;;;;;;0.93;0.73;;;23.70;51.70;;;;;;6261757;28;20158;-48
2022/06/16 04:43:24;;;;;;;0.60;0.52;;;23.70;51.70;;;;;;6263315;28;20107;-47
2022/06/16 04:46:32;;;;;;;0.70;0.68;;;23.80;51.80;;;;;;6263287;28;20877;-49
2022/06/16 04:49:34;;;;;;;0.85;0.60;;;23.70;51.80;;;;;;6263410;28;20045;-50
2022/06/16 04:52:36;;;;;;;0.80;0.75;;;23.70;51.80;;;;;;6265161;28;20298;-48
2022/06/16 04:55:38;;;;;;;0.60;0.52;;;23.80;51.90;;;;;;6263015;28;20389;-49
2022/06/16 04:58:56;;;;;;;0.50;0.50;;;23.80;51.90;;;;;;6262389;28;20099;-49
2022/06/16 05:02:11;;;;;;;0.60;0.60;;;23.80;52.00;;;;;;6268435;28;21036;-53
2022/06/16 05:05:31;;;;;;;1.02;0.60;;;23.80;52.00;;;;;;6263086;28;20431;-48
2022/06/16 05:08:35;;;;;;;0.80;0.60;;;23.70;52.00;;;;;;6265770;28;20050;-49
2022/06/16 05:11:56;;;;;;;0.60;0.60;;;23.80;52.10;;;;;;6269891;28;20901;-49
2022/06/16 05:15:16;;;;;;;0.77;0.70;;;23.70;52.10;;;;;;6276539;28;20202;-50
2022/06/16 05:18:31;;;;;;;0.80;0.63;;;23.80;52.10;;;;;;6263389;28;20046;-52
2022/06/16 05:21:42;;;;;;;1.10;0.73;;;23.70;52.10;;;;;;6271015;28;20154;-48
2022/06/16 05:25:06;;;;;;;0.80;0.60;;;23.90;52.20;;;;;;6247950;28;20836;-47
2022/06/16 05:28:12;;;;;;;1.00;0.70;;;23.70;52.20;;;;;;6260788;28;20515;-50
2022/06/16 05:31:18;;;;;;;1.00;0.80;;;23.70;52.20;;;;;;6258324;28;20048;-50
2022/06/16 05:34:31;;;;;;;0.77;0.65;;;23.70;52.30;;;;;;6256595;28;20318;-51
2022/06/16 05:37:44;;;;;;;0.70;0.52;;;23.70;52.40;;;;;;6272505;28;20209;-49
2022/06/16 05:41:07;;;;;;;;;;;23.70;52.50;;;;;;6282078;28;20114;-47
2022/06/16 05:44:21;;;;;;;0.70;0.70;;;23.60;52.30;;;;;;6263414;28;20068;-50
2022/06/16 05:47:32;;;;;;;1.10;0.88;;;23.70;52.40;;;;;;6274129;28;20566;-50
2022/06/16 05:50:34;;;;;;;0.88;0.60;;;23.90;52.50;;;;;;6277691;28;20051;-49
2022/06/16 05:53:39;;;;;;;0.60;0.60;;;23.70;52.50;;;;;;6267764;28;20969;-49
2022/06/16 05:56:49;;;;;;;0.60;0.50;;;23.60;52.50;;;;;;6276120;28;20044;-48
2022/06/16 05:59:51;;;;;;;0.40;0.40;;;23.70;52.60;;;;;;6277974;28;20067;-47
2022/06/16 06:02:55;;;;;;;0.60;0.50;;;23.70;52.60;;;;;;6245762;28;20052;-49
2022/06/16 06:05:59;;;;;;;0.73;0.50;;;23.70;52.60;;;;;;6265434;28;20145;-47
2022/06/16 06:19:23;;;;;;;1.42;0.70;;;23.70;53.20;;;;;;6248602;28;20058;-53
2022/06/16 06:22:24;;;;;;;0.47;0.40;;;23.70;52.50;;;;;;6216100;28;20051;-47
2022/06/16 06:25:41;;;;;;;0.50;0.40;;;23.70;52.50;;;;;;6234880;28;20051;-51
2022/06/16 06:28:44;;;;;;;0.60;0.60;;;23.80;52.50;;;;;;6230590;28;20055;-50
2022/06/16 06:31:45;;;;;;;0.50;0.50;;;23.80;52.60;;;;;;6242865;28;20185;-46
2022/06/16 06:34:48;;;;;;;0.55;0.40;;;23.80;52.50;;;;;;6236230;28;20047;-51
2022/06/16 06:37:49;;;;;;;0.77;0.70;;;23.80;52.50;;;;;;6222245;28;20041;-49
2022/06/16 06:40:53;;;;;;;0.52;0.40;;;23.80;52.50;;;;;;6215115;28;21020;-48
2022/06/16 06:43:56;;;;;;;0.55;0.40;;;23.80;52.50;;;;;;6201019;28;20186;-51
2022/06/16 06:46:58;;;;;;;0.75;0.60;;;23.80;52.60;;;;;;6203705;28;20040;-47
2022/06/16 06:49:59;;;;;;;0.63;0.50;;;23.80;52.40;;;;;;6169140;28;20087;-50
2022/06/16 06:53:01;;;;;;;0.70;0.60;;;23.80;52.40;;;;;;6176464;28;20050;-49
2022/06/16 06:56:04;;;;;;;0.70;0.57;;;23.80;52.30;;;;;;6182754;28;20215;-50
2022/06/16 06:59:10;;;;;;;0.73;0.40;;;23.80;52.40;;;;;;6173536;28;20048;-49
2022/06/16 07:02:13;;;;;;;0.80;0.50;;;23.70;52.20;;;;;;6139021;28;20132;-46
2022/06/16 07:05:16;;;;;;;0.60;0.50;;;23.90;52.20;;;;;;6146760;28;21389;-46
2022/06/16 07:08:21;;;;;;;0.65;0.40;;;23.80;52.20;;;;;;6136927;28;20043;-46
2022/06/16 07:11:22;;;;;;;0.82;0.47;;;23.90;52.30;;;;;;6126374;28;21569;-47
2022/06/16 07:14:26;;;;;;;0.77;0.40;;;23.90;52.20;;;;;;6138609;28;20346;-50
2022/06/16 07:17:28;;;;;;;1.40;0.50;;;23.90;52.10;;;;;;6125281;28;20252;-45
2022/06/16 07:20:30;;;;;;;0.55;0.50;;;23.90;52.00;;;;;;6134955;28;20060;-47
2022/06/16 07:23:32;;;;;;;1.70;0.60;;;23.90;52.00;;;;;;6150717;28;20158;-49
2022/06/16 07:26:34;;;;;;;3.30;0.60;;;24.00;51.90;;;;;;6146913;28;21960;-46
2022/06/16 07:29:36;;;;;;;0.85;0.50;;;24.00;51.80;;;;;;6077487;28;20044;-51
2022/06/16 07:32:47;;;;;;;1.48;0.65;;;24.00;51.70;;;;;;6068587;28;20044;-46
2022/06/16 07:35:50;;;;;;;1.10;0.70;;;24.00;51.50;;;;;;6044573;28;20051;-51
2022/06/16 07:38:51;;;;;;;0.95;0.45;;;24.10;51.50;;;;;;6035684;28;20143;-46
2022/06/16 07:41:53;;;;;;;1.70;0.52;;;24.10;51.30;;;;;;6071613;28;20051;-47
2022/06/16 07:44:55;;;;;;;0.70;0.50;;;24.20;51.30;;;;;;6051714;28;20058;-47
2022/06/16 07:48:00;;;;;;;0.70;0.50;;;24.20;51.00;;;;;;6067628;28;20116;-46
2022/06/16 07:51:02;;;;;;;0.68;0.60;;;24.20;50.90;;;;;;6062101;28;20043;-45
2022/06/16 07:54:07;;;;;;;0.60;0.55;;;24.20;50.70;;;;;;6077329;28;20039;-45
2022/06/16 07:57:16;;;;;;;0.75;0.50;;;24.20;50.60;;;;;;6064125;28;20124;-45
2022/06/16 08:00:28;;;;;;;0.40;0.40;;;24.30;50.50;;;;;;6070074;28;20054;-45
2022/06/16 08:03:30;;;;;;;0.50;0.50;;;24.30;50.20;;;;;;6063495;28;20836;-49
2022/06/16 08:06:33;;;;;;;0.65;0.57;;;24.30;50.00;;;;;;6052768;28;20170;-48
2022/06/16 08:09:35;;;;;;;0.68;0.52;;;24.30;49.80;;;;;;6043329;28;20039;-47
2022/06/16 08:12:40;;;;;;;0.82;0.40;;;24.30;49.60;;;;;;6063580;28;20169;-47
2022/06/16 08:15:45;;;;;;;0.50;0.40;;;24.40;49.40;;;;;;6080108;28;20085;-49
2022/06/16 08:18:47;;;;;;;0.47;0.40;;;24.40;49.20;;;;;;6068570;28;20053;-47
2022/06/16 08:21:49;;;;;;;0.65;0.60;;;24.30;48.70;;;;;;6084075;28;22900;-46
2022/06/16 08:24:51;;;;;;;0.70;0.70;;;24.70;48.90;;;;;;6064381;28;21374;-46
2022/06/16 08:27:54;;;;;;;0.57;0.55;;;24.50;48.60;;;;;;6083324;28;21434;-46
2022/06/16 08:30:56;;;;;;;0.70;0.70;;;24.60;48.40;;;;;;6058571;28;20097;-47
2022/06/16 08:33:58;;;;;;;0.40;0.40;;;24.60;48.20;;;;;;6049891;28;20249;-46
2022/06/16 08:37:00;;;;;;;1.83;1.02;;;24.60;48.10;;;;;;6056780;28;20063;-47
2022/06/16 08:40:02;;;;;;;0.90;0.70;;;24.60;47.80;;;;;;6042991;28;20156;-50
2022/06/16 08:43:08;;;;;;;0.70;0.70;;;24.60;47.70;;;;;;6060830;28;20050;-47
2022/06/16 08:46:14;;;;;;;0.70;0.70;;;24.60;47.50;;;;;;6062714;28;20085;-46
2022/06/16 08:49:27;;;;;;;0.70;0.70;;;24.60;47.50;;;;;;6062577;28;20051;-45
2022/06/16 08:52:37;;;;;;;0.82;0.60;;;24.60;47.40;;;;;;6063075;28;20051;-45
2022/06/16 08:55:51;;;;;;;0.82;0.82;;;24.70;47.40;;;;;;6056541;28;21447;-47
2022/06/16 08:59:00;;;;;;;0.70;0.70;;;24.60;47.30;;;;;;6060185;28;20043;-48
2022/06/16 09:02:06;;;;;;;0.70;0.70;;;24.60;47.30;;;;;;6086060;28;20155;-49
2022/06/16 09:05:23;;;;;;;0.80;0.80;;;24.50;47.30;;;;;;6048237;28;20040;-46
2022/06/16 09:08:40;;;;;;;1.02;0.93;;;24.70;47.20;;;;;;6062008;28;21924;-48
2022/06/16 09:11:54;;;;;;;0.93;0.80;;;24.60;47.10;;;;;;6063411;28;20193;-46
2022/06/16 09:18:34;;;;;;;1.35;0.60;;;24.50;47.50;;;;;;6032715;28;20116;-49
2022/06/16 09:21:46;;;;;;;0.70;0.70;;;24.60;46.90;;;;;;6059939;28;20070;-49
2022/06/16 09:25:02;;;;;;;0.77;0.77;;;24.50;47.50;;;;;;6058125;28;20040;-47
2022/06/16 09:28:09;;;;;;;1.33;1.13;;;24.50;46.90;;;;;;6082099;27;20182;-50
2022/06/16 09:31:22;;;;;;;1.08;0.93;;;24.60;47.10;;;;;;6044635;28;20122;-49
2022/06/16 09:34:43;;;;;;;0.82;0.80;;;24.50;47.20;;;;;;6023166;28;20100;-46
2022/06/16 09:37:48;;;;;;;1.00;0.80;;;24.50;47.30;;;;;;6042383;28;21991;-48
2022/06/16 09:40:56;;;;;;;0.70;0.70;;;24.50;47.40;;;;;;6052948;28;20175;-46
2022/06/16 09:44:04;;;;;;;1.20;0.65;;;24.40;47.50;;;;;;6053413;28;20040;-49
2022/06/16 09:47:10;;;;;;;1.30;0.85;;;24.50;47.70;;;;;;6067503;28;20037;-50
2022/06/16 09:50:21;;;;;;;1.23;0.60;;;24.50;47.80;;;;;;6045787;28;20051;-48
2022/06/16 09:53:30;;;;;;;0.60;0.50;;;24.50;48.00;;;;;;6056838;28;20196;-47
2022/06/16 09:56:38;;;;;;;1.05;0.55;;;24.50;48.10;;;;;;6077497;28;20054;-46
2022/06/16 09:59:44;;;;;;;0.60;0.52;;;24.50;48.30;;;;;;6073785;28;20170;-46
2022/06/16 10:02:49;;;;;;;0.50;0.50;;;25.40;49.00;;;;;;6051753;28;20174;-50
2022/06/16 10:06:01;;;;;;;0.55;0.47;;;24.50;48.60;;;;;;6081528;28;21393;-45
2022/06/16 10:09:15;;;;;;;0.50;0.45;;;24.50;48.80;;;;;;6079296;28;20043;-49
2022/06/16 10:12:39;;;;;;;0.50;0.40;;;24.50;48.90;;;;;;6098522;28;20046;-46
2022/06/16 10:15:48;;;;;;;0.80;0.50;;;24.50;49.00;;;;;;6099804;28;20058;-47
2022/06/16 10:18:50;;;;;;;0.40;0.38;;;24.50;49.00;;;;;;6082406;28;20051;-50
2022/06/16 10:21:52;;;;;;;0.63;0.52;;;24.50;49.10;;;;;;6050339;27;20334;-47
2022/06/16 10:24:59;;;;;;;0.63;0.47;;;24.50;49.20;;;;;;6058131;28;20245;-46
2022/06/16 10:28:28;;;;;;;0.52;0.47;;;24.50;49.20;;;;;;6114170;28;20288;-49
2022/06/16 10:31:37;;;;;;;0.75;0.65;;;24.50;49.20;;;;;;6108881;28;21552;-48
2022/06/16 10:34:41;;;;;;;0.52;0.40;;;24.50;49.30;;;;;;6135867;28;20051;-48
2022/06/16 10:37:44;;;;;;;0.52;0.45;;;24.50;48.90;;;;;;6148079;28;20120;-48
2022/06/16 10:40:45;;;;;;;0.50;0.47;;;24.60;49.40;;;;;;6151580;28;20059;-52
2022/06/16 10:44:15;;;;;;;0.60;0.50;;;24.50;49.40;;;;;;6140586;28;20610;-49
2022/06/16 10:47:20;;;;;;;0.68;0.50;;;24.50;49.50;;;;;;6133342;28;21282;-50
2022/06/16 10:50:55;;;;;;;0.90;0.47;;;24.30;49.30;;;;;;6159527;28;20966;-45
2022/06/16 10:54:03;;;;;;;0.80;0.50;;;24.50;49.30;;;;;;6158576;28;20277;-49
2022/06/16 10:57:12;;;;;;;0.50;0.50;;;24.50;49.20;;;;;;6167019;28;20044;-49
2022/06/16 11:00:19;;;;;;;0.45;0.40;;;24.40;49.10;;;;;;6136670;28;20043;-49
2022/06/16 11:03:21;;;;;;;0.95;0.60;;;24.40;48.90;;;;;;6141682;28;20831;-49
2022/06/16 11:06:23;;;;;;;1.52;0.32;;;24.50;48.70;;;;;;6191776;28;20047;-48
2022/06/16 11:09:28;;;;;;;0.45;0.40;;;24.30;48.30;;;;;;6176197;28;20031;-51
2022/06/16 11:12:30;;;;;;;0.40;0.30;;;24.50;48.20;;;;;;6190306;28;20054;-49
2022/06/16 11:15:35;;;;;;;0.30;0.30;;;24.50;48.00;;;;;;6207594;28;20166;-47
2022/06/16 11:18:39;;;;;;;0.75;0.40;;;24.50;47.70;;;;;;6189583;28;20031;-48
2022/06/16 11:21:46;;;;;;;0.57;0.57;;;24.50;47.70;;;;;;6196666;28;20075;-50
2022/06/16 11:24:54;;;;;;;0.70;0.60;;;24.40;47.20;;;;;;6177993;28;20146;-50
2022/06/16 11:27:58;;;;;;;0.60;0.60;;;24.40;47.00;;;;;;6180136;28;20047;-47
2022/06/16 11:31:02;;;;;;;0.85;0.40;;;24.50;46.80;;;;;;6194336;28;20052;-49
2022/06/16 11:34:25;;;;;;;1.05;0.60;;;24.30;46.50;;;;;;6180506;28;20068;-53
2022/06/16 11:37:43;;;;;;;0.45;0.40;;;24.50;46.30;;;;;;6170810;28;20048;-50
2022/06/16 11:40:50;;;;;;;0.40;0.40;;;24.50;46.00;;;;;;6186463;28;20040;-49
2022/06/16 11:44:02;;;;;;;0.57;0.57;;;24.50;45.60;;;;;;6179264;28;21563;-49
2022/06/16 11:47:12;;;;;;;1.05;0.57;;;24.50;45.40;;;;;;6157984;28;20124;-49
2022/06/16 11:50:25;;;;;;;0.55;0.50;;;24.50;45.00;;;;;;6145436;28;20044;-48
2022/06/16 11:53:39;;;;;;;0.40;0.40;;;24.50;44.90;;;;;;6135898;28;20043;-50
2022/06/16 11:56:44;;;;;;;0.80;0.55;;;24.50;45.10;;;;;;6142143;28;20170;-50
2022/06/16 11:59:59;;;;;;;1.08;0.60;;;24.50;45.00;;;;;;6089102;28;20637;-51
2022/06/16 12:03:22;;;;;;;0.60;0.45;;;24.40;44.90;;;;;;6078605;28;20178;-49
2022/06/16 12:06:42;;;;;;;0.60;0.38;;;24.50;44.60;;;;;;6062790;28;20113;-48
2022/06/16 12:09:51;;;;;;;1.58;0.80;;;24.60;44.70;;;;;;6019145;28;20879;-48
2022/06/16 12:13:02;;;;;;;0.98;0.70;;;24.50;44.50;;;;;;6031583;28;20174;-50
2022/06/16 12:16:13;;;;;;;2.17;0.70;;;24.60;44.40;;;;;;6071995;28;20178;-51
2022/06/16 12:19:26;;;;;;;1.05;0.60;;;24.60;44.20;;;;;;6008807;28;20059;-46
2022/06/16 12:22:35;;;;;;;1.02;0.60;;;24.60;44.20;;;;;;6028618;28;20056;-50
2022/06/16 12:25:45;;;;;;;0.75;0.40;;;24.80;43.90;;;;;;6075692;28;20044;-47
2022/06/16 12:29:01;;;;;;;0.50;0.50;;;24.60;43.70;;;;;;6064101;28;20047;-52
2022/06/16 12:32:12;;;;;;;1.00;0.70;;;24.60;43.60;;;;;;6089066;28;20332;-46
2022/06/16 12:35:23;;;;;;;1.15;0.50;;;24.70;43.40;;;;;;6086889;28;20077;-46
2022/06/16 12:38:31;;;;;;;0.98;0.60;;;24.80;43.40;;;;;;6087164;28;20047;-49
2022/06/16 12:42:03;;;;;;;1.23;0.50;;;24.70;43.10;;;;;;6091579;28;21861;-49
2022/06/16 12:45:09;;;;;;;0.80;0.47;;;24.70;43.10;;;;;;6090357;28;20083;-47
2022/06/16 12:48:16;;;;;;;1.17;0.60;;;24.70;42.80;;;;;;6109021;28;20039;-49
2022/06/16 12:51:21;;;;;;;1.23;0.65;;;24.70;42.70;;;;;;6096453;28;20050;-46
2022/06/16 12:54:28;;;;;;;0.88;0.50;;;24.70;42.70;;;;;;6071718;28;20128;-46
2022/06/16 12:57:33;;;;;;;1.58;0.70;;;24.70;42.80;;;;;;6080968;28;20050;-47
2022/06/16 13:00:44;;;;;;;0.55;0.43;;;24.80;42.90;;;;;;6068820;28;20043;-45
2022/06/16 13:03:52;;;;;;;0.88;0.57;;;24.80;42.80;;;;;;6072519;28;20181;-52
2022/06/16 13:07:03;;;;;;;0.70;0.60;;;24.70;42.70;;;;;;6073082;28;20127;-47
2022/06/16 13:10:06;;;;;;;0.93;0.50;;;24.70;42.70;;;;;;6048813;28;20036;-49
2022/06/16 13:13:09;;;;;;;0.80;0.50;;;24.80;43.40;;;;;;6020741;28;20366;-45
2022/06/16 13:16:15;;;;;;;0.85;0.57;;;24.80;42.80;;;;;;6051824;28;20132;-46
2022/06/16 13:19:21;;;;;;;0.70;0.57;;;24.80;42.60;;;;;;6057987;28;20056;-45
2022/06/16 13:22:27;;;;;;;0.95;0.73;;;24.80;42.60;;;;;;6058340;28;20048;-46
2022/06/16 13:25:42;;;;;;;0.93;0.50;;;24.80;42.60;;;;;;6064246;28;21504;-50
2022/06/16 13:28:52;;;;;;;1.98;0.63;;;24.80;42.50;;;;;;6080591;28;20039;-47
2022/06/16 13:32:00;;;;;;;0.75;0.55;;;24.90;42.60;;;;;;6063766;28;20070;-51
2022/06/16 13:35:22;;;;;;;0.80;0.60;;;24.90;42.60;;;;;;6077872;28;20203;-50
2022/06/16 13:38:39;;;;;;;1.55;0.60;;;25.00;42.70;;;;;;6054721;28;20051;-49
2022/06/16 13:41:42;;;;;;;0.80;0.40;;;24.90;42.70;;;;;;6050426;28;20048;-47
2022/06/16 13:45:22;;;;;;;0.88;0.50;;;25.00;42.70;;;;;;6073540;28;20044;-48
2022/06/16 13:48:37;;;;;;;1.85;0.63;;;24.90;42.60;;;;;;6074611;28;20166;-47
2022/06/16 13:51:42;;;;;;;0.80;0.60;;;24.90;42.60;;;;;;6068347;28;20178;-51
2022/06/16 13:54:44;;;;;;;0.93;0.60;;;25.00;42.60;;;;;;6068319;28;20052;-51
2022/06/16 13:57:46;;;;;;;0.82;0.50;;;25.00;42.60;;;;;;6063809;28;20047;-48
2022/06/16 14:01:05;;;;;;;0.98;0.60;;;25.00;42.60;;;;;;6074451;28;20084;-49
2022/06/16 14:04:09;;;;;;;0.68;0.50;;;24.90;42.40;;;;;;6022663;28;20164;-52
2022/06/16 14:07:14;;;;;;;1.50;0.47;;;25.00;42.40;;;;;;6031213;28;20093;-46
2022/06/16 14:10:25;;;;;;;1.60;0.60;;;25.10;42.30;;;;;;5972927;28;20052;-47
2022/06/16 14:14:14;;;;;;;0.82;0.57;;;25.10;42.20;;;;;;6055103;28;20055;-51
2022/06/16 14:17:27;;;;;;;1.43;0.50;;;25.10;42.10;;;;;;6030247;28;20162;-48
2022/06/16 14:20:35;;;;;;;0.47;0.43;;;24.90;42.00;;;;;;6025152;28;20607;-45
2022/06/16 14:23:42;;;;;;;1.95;0.52;;;25.10;42.20;;;;;;6036028;28;20047;-47
2022/06/16 14:26:44;;;;;;;0.63;0.63;;;25.10;42.20;;;;;;6079263;28;20225;-49
2022/06/16 14:29:47;;;;;;;1.33;0.50;;;25.10;42.30;;;;;;6063919;28;20044;-49
2022/06/16 14:32:53;;;;;;;0.52;0.40;;;25.10;42.30;;;;;;6103563;28;20051;-48
2022/06/16 14:35:59;;;;;;;1.02;0.50;;;25.10;42.10;;;;;;6074575;28;20048;-51
2022/06/16 14:39:06;;;;;;;0.65;0.40;;;25.10;41.90;;;;;;6066357;28;20170;-48
2022/06/16 14:42:37;;;;;;;0.95;0.70;;;25.10;41.80;;;;;;6041636;28;20044;-49
2022/06/16 14:45:45;;;;;;;0.40;0.30;;;24.90;41.60;;;;;;6074511;28;20079;-48
2022/06/16 14:48:53;;;;;;;0.38;0.35;;;25.10;41.60;;;;;;6074015;28;21930;-52
2022/06/16 14:51:57;;;;;;;0.98;0.60;;;25.20;41.70;;;;;;6076709;28;20044;-50
2022/06/16 14:55:06;;;;;;;0.63;0.63;;;25.10;41.50;;;;;;6080982;28;20036;-50
2022/06/16 14:58:08;;;;;;;0.60;0.40;;;25.20;42.20;;;;;;6049287;28;20492;-49
2022/06/16 15:01:10;;;;;;;0.73;0.50;;;25.10;41.60;;;;;;6041754;28;20830;-51
2022/06/16 15:04:15;;;;;;;0.50;0.40;;;25.10;41.70;;;;;;6041037;28;20149;-46
2022/06/16 15:07:19;;;;;;;0.40;0.40;;;25.20;41.80;;;;;;6053149;28;20047;-48
2022/06/16 15:10:25;;;;;;;0.80;0.57;;;25.20;41.90;;;;;;6060264;28;20050;-51
2022/06/16 15:13:29;;;;;;;0.40;0.40;;;25.20;41.90;;;;;;6083342;28;20176;-52
2022/06/16 15:19:54;;;;;;;0.65;0.30;;;25.20;42.10;;;;;;6074503;28;20048;-53
2022/06/16 15:22:57;;;;;;;0.50;0.50;;;25.10;42.10;;;;;;6084728;28;20060;-50
2022/06/16 15:26:01;;;;;;;0.95;0.40;;;25.20;42.20;;;;;;6067110;28;20195;-48
2022/06/16 15:29:07;;;;;;;0.40;0.40;;;25.20;42.30;;;;;;6097532;28;20051;-48
2022/06/16 15:38:45;;;;;;;0.35;0.30;;;25.20;42.30;;;;;;6061974;28;20051;-50
2022/06/16 15:41:50;;;;;;;0.50;0.40;;;25.20;42.30;;;;;;6084695;28;20173;-52
2022/06/16 15:44:54;;;;;;;6.18;0.70;;;25.30;42.40;;;;;;6106033;28;20326;-45
2022/06/16 15:47:57;;;;;;;0.70;0.47;;;25.10;42.30;;;;;;6115075;28;20189;-45
2022/06/16 15:51:05;;;;;;;1.08;0.60;;;25.30;42.40;;;;;;6128017;28;20040;-48
2022/06/16 15:54:09;;;;;;;0.47;0.47;;;25.20;42.30;;;;;;6173026;28;20166;-45
2022/06/16 15:57:12;;;;;;;1.13;0.50;;;25.40;42.40;;;;;;6164648;28;21617;-45
2022/06/16 16:00:19;;;;;;;0.85;0.65;;;25.30;42.30;;;;;;6155851;28;20493;-46
2022/06/16 16:03:24;;;;;;;0.60;0.40;;;25.30;42.40;;;;;;6159205;27;20036;-47
2022/06/16 16:06:30;;;;;;;0.88;0.60;;;25.30;42.40;;;;;;6142695;28;20078;-51
2022/06/16 16:09:32;;;;;;;1.15;0.50;;;25.30;42.50;;;;;;6124413;28;20357;-45
2022/06/16 16:12:34;;;;;;;1.02;0.60;;;25.30;42.50;;;;;;6151341;28;20059;-48
2022/06/16 16:15:38;;;;;;;0.88;0.50;;;25.30;42.50;;;;;;6182024;28;20136;-47
2022/06/16 16:18:40;;;;;;;1.70;0.60;;;25.40;42.60;;;;;;6153870;28;20040;-47
2022/06/16 16:21:46;;;;;;;0.73;0.50;;;25.40;42.50;;;;;;6194343;28;20124;-47
2022/06/16 16:24:48;;;;;;;1.77;0.60;;;25.40;42.50;;;;;;6197943;28;20043;-49
2022/06/16 16:27:51;;;;;;;0.60;0.52;;;25.50;42.60;;;;;;6187182;28;20160;-47
2022/06/16 16:30:54;;;;;;;0.82;0.50;;;25.50;42.60;;;;;;6211357;28;20121;-49
2022/06/16 16:33:59;;;;;;;0.80;0.60;;;25.50;42.60;;;;;;6202385;28;21907;-47
2022/06/16 16:37:10;;;;;;;0.77;0.57;;;25.50;42.60;;;;;;6196369;28;20050;-49
2022/06/16 16:40:18;;;;;;;;;;;25.60;42.60;;;;;;6211689;28;20054;-46
2022/06/16 16:43:21;;;;;;;1.20;0.60;;;25.50;42.60;;;;;;6209114;28;20020;-44
2022/06/16 16:46:29;;;;;;;0.60;0.47;;;25.60;42.70;;;;;;6209225;28;20047;-46
2022/06/16 16:49:48;;;;;;;1.08;0.50;;;25.60;42.50;;;;;;6222106;28;20035;-47
2022/06/16 16:52:50;;;;;;;0.85;0.50;;;25.60;42.50;;;;;;6223850;28;20051;-47
2022/06/16 16:56:06;;;;;;;0.35;0.32;;;25.60;42.50;;;;;;6229680;28;20043;-45